sensor_id;sensor_type;location;lat;lon;timestamp;pressure;altitude;pressure_sealevel;temperature;humidity
71457;BME280;59263;48.160;11.752;2023-04-01T00:01:05;94710.91;;;7.23;100.00
71457;BME280;59263;48.160;11.752;2023-04-01T00:03:32;94707.00;;;7.19;100.00
71457;BME280;59263;48.160;11.752;2023-04-01T00:05:58;94699.91;;;7.13;100.00
71457;BME280;59263;48.160;11.752;2023-04-01T00:08:25;94692.44;;;7.01;100.00
71457;BME280;59263;48.160;11.752;2023-04-01T00:10:51;94686.50;;;7.01;100.00
71457;BME280;59263;48.160;11.752;2023-04-01T00:13:17;94671.72;;;6.85;100.00
71457;BME280;59263;48.160;11.752;2023-04-01T00:15:44;94689.47;;;6.96;100.00
71457;BME280;59263;48.160;11.752;2023-04-01T00:18:09;94679.09;;;6.80;100.00
71457;BME280;59263;48.160;11.752;2023-04-01T00:20:35;94691.41;;;6.94;100.00
71457;BME280;59263;48.160;11.752;2023-04-01T00:23:00;94666.88;;;6.82;100.00
71457;BME280;59263;48.160;11.752;2023-04-01T00:25:26;94663.41;;;6.91;100.00
71457;BME280;59263;48.160;11.752;2023-04-01T00:27:51;94674.66;;;6.90;100.00
71457;BME280;59263;48.160;11.752;2023-04-01T00:30:17;94664.56;;;6.97;100.00
71457;BME280;59263;48.160;11.752;2023-04-01T00:32:43;94656.00;;;6.88;100.00
71457;BME280;59263;48.160;11.752;2023-04-01T00:35:09;94659.66;;;6.86;100.00
71457;BME280;59263;48.160;11.752;2023-04-01T00:37:36;94659.25;;;6.90;100.00
71457;BME280;59263;48.160;11.752;2023-04-01T00:40:03;94670.41;;;6.81;100.00
71457;BME280;59263;48.160;11.752;2023-04-01T00:42:29;94666.88;;;6.82;100.00
71457;BME280;59263;48.160;11.752;2023-04-01T00:44:55;94669.38;;;6.74;100.00
71457;BME280;59263;48.160;11.752;2023-04-01T00:47:21;94661.53;;;6.75;100.00
71457;BME280;59263;48.160;11.752;2023-04-01T00:49:51;94658.06;;;6.67;100.00
71457;BME280;59263;48.160;11.752;2023-04-01T00:52:25;94670.56;;;6.62;100.00
71457;BME280;59263;48.160;11.752;2023-04-01T00:54:56;94667.25;;;6.69;100.00
71457;BME280;59263;48.160;11.752;2023-04-01T00:57:29;94660.28;;;6.62;100.00
71457;BME280;59263;48.160;11.752;2023-04-01T00:59:56;94673.22;;;6.70;100.00
71457;BME280;59263;48.160;11.752;2023-04-01T01:02:22;94667.03;;;6.63;100.00
71457;BME280;59263;48.160;11.752;2023-04-01T01:04:47;94660.66;;;6.67;100.00
71457;BME280;59263;48.160;11.752;2023-04-01T01:07:26;94670.41;;;6.81;100.00
71457;BME280;59263;48.160;11.752;2023-04-01T01:15:45;94664.81;;;6.86;100.00
71457;BME280;59263;48.160;11.752;2023-04-01T01:26:40;94665.84;;;6.93;100.00
71457;BME280;59263;48.160;11.752;2023-04-01T01:37:40;94662.75;;;6.89;100.00
71457;BME280;59263;48.160;11.752;2023-04-01T01:40:09;94660.56;;;6.94;100.00
71457;BME280;59263;48.160;11.752;2023-04-01T01:42:38;94623.09;;;6.74;100.00
71457;BME280;59263;48.160;11.752;2023-04-01T01:45:06;94652.34;;;6.91;100.00
71457;BME280;59263;48.160;11.752;2023-04-01T01:47:34;94657.59;;;6.89;100.00
71457;BME280;59263;48.160;11.752;2023-04-01T01:50:01;94653.66;;;6.95;100.00
71457;BME280;59263;48.160;11.752;2023-04-01T01:52:28;94652.97;;;6.93;100.00
71457;BME280;59263;48.160;11.752;2023-04-01T01:54:56;94646.81;;;6.86;100.00
71457;BME280;59263;48.160;11.752;2023-04-01T01:57:28;94632.00;;;6.79;100.00
71457;BME280;59263;48.160;11.752;2023-04-01T01:59:58;94647.47;;;6.88;100.00
71457;BME280;59263;48.160;11.752;2023-04-01T02:02:26;94640.66;;;6.78;100.00
71457;BME280;59263;48.160;11.752;2023-04-01T02:04:52;94641.84;;;6.84;100.00
71457;BME280;59263;48.160;11.752;2023-04-01T02:07:22;94655.19;;;6.88;100.00
71457;BME280;59263;48.160;11.752;2023-04-01T02:09:49;94656.59;;;6.82;100.00
71457;BME280;59263;48.160;11.752;2023-04-01T02:12:16;94664.97;;;6.84;100.00
71457;BME280;59263;48.160;11.752;2023-04-01T02:14:54;94647.22;;;6.73;100.00
71457;BME280;59263;48.160;11.752;2023-04-01T02:17:26;94670.03;;;6.94;100.00
71457;BME280;59263;48.160;11.752;2023-04-01T02:20:03;94685.00;;;6.98;100.00
71457;BME280;59263;48.160;11.752;2023-04-01T02:22:36;94678.56;;;6.94;100.00
71457;BME280;59263;48.160;11.752;2023-04-01T02:25:07;94667.59;;;6.92;100.00
71457;BME280;59263;48.160;11.752;2023-04-01T02:27:33;94680.47;;;6.92;100.00
71457;BME280;59263;48.160;11.752;2023-04-01T02:29:59;94667.88;;;6.89;100.00
71457;BME280;59263;48.160;11.752;2023-04-01T02:32:25;94672.09;;;6.90;100.00
71457;BME280;59263;48.160;11.752;2023-04-01T02:34:51;94669.22;;;6.93;100.00
71457;BME280;59263;48.160;11.752;2023-04-01T02:37:17;94658.81;;;6.77;100.00
71457;BME280;59263;48.160;11.752;2023-04-01T02:39:43;94668.22;;;6.86;100.00
71457;BME280;59263;48.160;11.752;2023-04-01T02:42:08;94686.84;;;6.88;100.00
71457;BME280;59263;48.160;11.752;2023-04-01T02:44:34;94668.06;;;6.88;100.00
71457;BME280;59263;48.160;11.752;2023-04-01T02:47:00;94684.63;;;6.93;100.00
71457;BME280;59263;48.160;11.752;2023-04-01T02:49:25;94676.56;;;6.88;100.00
71457;BME280;59263;48.160;11.752;2023-04-01T02:51:50;94694.00;;;6.94;100.00
71457;BME280;59263;48.160;11.752;2023-04-01T02:54:17;94682.00;;;6.85;100.00
71457;BME280;59263;48.160;11.752;2023-04-01T02:56:42;94678.78;;;6.83;100.00
71457;BME280;59263;48.160;11.752;2023-04-01T02:59:08;94674.00;;;6.88;100.00
71457;BME280;59263;48.160;11.752;2023-04-01T03:01:33;94679.81;;;6.90;100.00
71457;BME280;59263;48.160;11.752;2023-04-01T03:03:59;94693.03;;;6.95;100.00
71457;BME280;59263;48.160;11.752;2023-04-01T03:06:24;94692.06;;;6.96;100.00
71457;BME280;59263;48.160;11.752;2023-04-01T03:08:50;94672.97;;;6.81;100.00
71457;BME280;59263;48.160;11.752;2023-04-01T03:11:15;94689.44;;;6.88;100.00
71457;BME280;59263;48.160;11.752;2023-04-01T03:13:40;94695.88;;;6.92;100.00
71457;BME280;59263;48.160;11.752;2023-04-01T03:16:06;94700.91;;;6.94;100.00
71457;BME280;59263;48.160;11.752;2023-04-01T03:18:32;94698.16;;;6.95;100.00
71457;BME280;59263;48.160;11.752;2023-04-01T03:20:57;94695.88;;;6.92;100.00
71457;BME280;59263;48.160;11.752;2023-04-01T03:23:22;94685.81;;;6.81;100.00
71457;BME280;59263;48.160;11.752;2023-04-01T03:25:49;94702.97;;;6.90;100.00
71457;BME280;59263;48.160;11.752;2023-04-01T03:28:15;94707.44;;;6.88;100.00
71457;BME280;59263;48.160;11.752;2023-04-01T03:30:40;94710.81;;;6.89;100.00
71457;BME280;59263;48.160;11.752;2023-04-01T03:33:06;94693.25;;;6.84;100.00
71457;BME280;59263;48.160;11.752;2023-04-01T03:35:31;94690.53;;;6.86;100.00
71457;BME280;59263;48.160;11.752;2023-04-01T03:37:57;94683.19;;;6.73;100.00
71457;BME280;59263;48.160;11.752;2023-04-01T03:40:23;94703.75;;;6.73;100.00
71457;BME280;59263;48.160;11.752;2023-04-01T03:42:49;94710.59;;;6.64;100.00
71457;BME280;59263;48.160;11.752;2023-04-01T03:45:15;94712.78;;;6.59;100.00
71457;BME280;59263;48.160;11.752;2023-04-01T03:47:40;94714.94;;;6.64;100.00
71457;BME280;59263;48.160;11.752;2023-04-01T03:50:07;94728.72;;;6.63;100.00
71457;BME280;59263;48.160;11.752;2023-04-01T03:52:33;94733.94;;;6.71;100.00
71457;BME280;59263;48.160;11.752;2023-04-01T03:54:58;94730.34;;;6.64;100.00
71457;BME280;59263;48.160;11.752;2023-04-01T03:57:24;94721.50;;;6.48;100.00
71457;BME280;59263;48.160;11.752;2023-04-01T03:59:49;94728.28;;;6.49;100.00
71457;BME280;59263;48.160;11.752;2023-04-01T04:02:14;94723.28;;;6.48;100.00
71457;BME280;59263;48.160;11.752;2023-04-01T04:04:40;94738.63;;;6.58;100.00
71457;BME280;59263;48.160;11.752;2023-04-01T04:07:06;94740.53;;;6.55;100.00
71457;BME280;59263;48.160;11.752;2023-04-01T04:09:31;94727.56;;;6.57;100.00
71457;BME280;59263;48.160;11.752;2023-04-01T04:11:57;94730.66;;;6.61;100.00
71457;BME280;59263;48.160;11.752;2023-04-01T04:14:23;94721.50;;;6.48;100.00
71457;BME280;59263;48.160;11.752;2023-04-01T04:16:48;94723.16;;;6.49;100.00
71457;BME280;59263;48.160;11.752;2023-04-01T04:19:14;94730.75;;;6.41;100.00
71457;BME280;59263;48.160;11.752;2023-04-01T04:21:40;94720.47;;;6.41;100.00
71457;BME280;59263;48.160;11.752;2023-04-01T04:24:06;94726.47;;;6.32;100.00
71457;BME280;59263;48.160;11.752;2023-04-01T04:26:31;94729.22;;;6.30;100.00
71457;BME280;59263;48.160;11.752;2023-04-01T04:28:57;94726.19;;;6.35;100.00
71457;BME280;59263;48.160;11.752;2023-04-01T04:31:24;94725.16;;;6.28;100.00
71457;BME280;59263;48.160;11.752;2023-04-01T04:33:49;94730.47;;;6.44;100.00
71457;BME280;59263;48.160;11.752;2023-04-01T04:36:16;94719.94;;;6.38;100.00
71457;BME280;59263;48.160;11.752;2023-04-01T04:38:42;94733.72;;;6.46;100.00
71457;BME280;59263;48.160;11.752;2023-04-01T04:41:11;94721.72;;;6.37;100.00
71457;BME280;59263;48.160;11.752;2023-04-01T04:43:38;94725.75;;;6.40;100.00
71457;BME280;59263;48.160;11.752;2023-04-01T04:46:06;94743.38;;;6.52;100.00
71457;BME280;59263;48.160;11.752;2023-04-01T04:48:31;94743.09;;;6.55;100.00
71457;BME280;59263;48.160;11.752;2023-04-01T04:50:57;94744.44;;;6.60;100.00
71457;BME280;59263;48.160;11.752;2023-04-01T04:53:22;94746.47;;;6.56;100.00
71457;BME280;59263;48.160;11.752;2023-04-01T04:55:49;94744.28;;;6.61;100.00
71457;BME280;59263;48.160;11.752;2023-04-01T04:58:15;94747.66;;;6.62;100.00
71457;BME280;59263;48.160;11.752;2023-04-01T05:00:41;94740.91;;;6.61;100.00
71457;BME280;59263;48.160;11.752;2023-04-01T05:03:07;94738.25;;;6.52;100.00
71457;BME280;59263;48.160;11.752;2023-04-01T05:05:33;94740.69;;;6.54;100.00
71457;BME280;59263;48.160;11.752;2023-04-01T05:07:58;94751.84;;;6.63;100.00
71457;BME280;59263;48.160;11.752;2023-04-01T05:10:24;94749.28;;;6.63;100.00
71457;BME280;59263;48.160;11.752;2023-04-01T05:12:49;94751.00;;;6.72;100.00
71457;BME280;59263;48.160;11.752;2023-04-01T05:15:15;94748.13;;;6.75;100.00
71457;BME280;59263;48.160;11.752;2023-04-01T05:17:40;94739.81;;;6.63;100.00
71457;BME280;59263;48.160;11.752;2023-04-01T05:20:06;94757.47;;;6.76;100.00
71457;BME280;59263;48.160;11.752;2023-04-01T05:22:32;94746.22;;;6.77;100.00
71457;BME280;59263;48.160;11.752;2023-04-01T05:24:57;94746.88;;;6.79;100.00
71457;BME280;59263;48.160;11.752;2023-04-01T05:27:22;94742.56;;;6.79;100.00
71457;BME280;59263;48.160;11.752;2023-04-01T05:29:48;94730.13;;;6.75;100.00
71457;BME280;59263;48.160;11.752;2023-04-01T05:32:13;94730.63;;;6.78;100.00
71457;BME280;59263;48.160;11.752;2023-04-01T05:34:38;94721.53;;;6.84;100.00
71457;BME280;59263;48.160;11.752;2023-04-01T05:37:04;94728.00;;;6.88;100.00
71457;BME280;59263;48.160;11.752;2023-04-01T05:39:29;94734.38;;;7.02;100.00
71457;BME280;59263;48.160;11.752;2023-04-01T05:41:55;94748.41;;;7.08;100.00
71457;BME280;59263;48.160;11.752;2023-04-01T05:44:20;94747.47;;;7.09;100.00
71457;BME280;59263;48.160;11.752;2023-04-01T05:46:45;94740.41;;;7.11;100.00
71457;BME280;59263;48.160;11.752;2023-04-01T05:49:11;94730.50;;;7.16;100.00
71457;BME280;59263;48.160;11.752;2023-04-01T05:51:36;94736.88;;;7.12;100.00
71457;BME280;59263;48.160;11.752;2023-04-01T05:54:01;94736.63;;;7.23;100.00
71457;BME280;59263;48.160;11.752;2023-04-01T05:56:28;94753.03;;;7.22;100.00
71457;BME280;59263;48.160;11.752;2023-04-01T05:58:54;94745.03;;;7.25;100.00
71457;BME280;59263;48.160;11.752;2023-04-01T06:01:20;94737.75;;;7.20;100.00
71457;BME280;59263;48.160;11.752;2023-04-01T06:03:46;94744.50;;;7.21;100.00
71457;BME280;59263;48.160;11.752;2023-04-01T06:06:16;94731.81;;;7.20;100.00
71457;BME280;59263;48.160;11.752;2023-04-01T06:08:43;94753.41;;;7.27;100.00
71457;BME280;59263;48.160;11.752;2023-04-01T06:16:57;94742.78;;;7.30;100.00
71457;BME280;59263;48.160;11.752;2023-04-01T06:27:49;94749.19;;;7.44;100.00
71457;BME280;59263;48.160;11.752;2023-04-01T06:30:43;94759.81;;;7.49;100.00
71457;BME280;59263;48.160;11.752;2023-04-01T06:33:29;94759.53;;;7.52;100.00
71457;BME280;59263;48.160;11.752;2023-04-01T06:46:44;94741.63;;;7.68;100.00
71457;BME280;59263;48.160;11.752;2023-04-01T06:49:38;94741.16;;;7.73;100.00
71457;BME280;59263;48.160;11.752;2023-04-01T06:52:26;94737.31;;;7.77;100.00
71457;BME280;59263;48.160;11.752;2023-04-01T06:57:41;94732.84;;;7.79;100.00
71457;BME280;59263;48.160;11.752;2023-04-01T07:00:20;94734.75;;;7.77;100.00
71457;BME280;59263;48.160;11.752;2023-04-01T07:02:54;94728.59;;;7.70;100.00
71457;BME280;59263;48.160;11.752;2023-04-01T07:05:24;94733.75;;;7.70;100.00
71457;BME280;59263;48.160;11.752;2023-04-01T07:07:53;94744.75;;;7.80;100.00
71457;BME280;59263;48.160;11.752;2023-04-01T07:10:32;94748.16;;;7.89;100.00
71457;BME280;59263;48.160;11.752;2023-04-01T07:13:04;94748.38;;;7.95;100.00
71457;BME280;59263;48.160;11.752;2023-04-01T07:15:54;94752.28;;;8.08;100.00
71457;BME280;59263;48.160;11.752;2023-04-01T07:21:19;94744.28;;;8.19;100.00
71457;BME280;59263;48.160;11.752;2023-04-01T07:23:45;94739.81;;;8.29;100.00
71457;BME280;59263;48.160;11.752;2023-04-01T07:26:23;94750.22;;;8.45;100.00
71457;BME280;59263;48.160;11.752;2023-04-01T07:28:52;94752.84;;;8.62;100.00
71457;BME280;59263;48.160;11.752;2023-04-01T07:34:19;94739.56;;;8.40;100.00
71457;BME280;59263;48.160;11.752;2023-04-01T07:37:01;94733.47;;;8.50;100.00
71457;BME280;59263;48.160;11.752;2023-04-01T07:47:45;94764.84;;;8.87;100.00
71457;BME280;59263;48.160;11.752;2023-04-01T07:50:27;94752.09;;;8.94;100.00
71457;BME280;59263;48.160;11.752;2023-04-01T07:53:16;94756.94;;;8.97;100.00
71457;BME280;59263;48.160;11.752;2023-04-01T07:58:39;94759.00;;;8.93;100.00
71457;BME280;59263;48.160;11.752;2023-04-01T08:04:09;94749.03;;;8.90;100.00
71457;BME280;59263;48.160;11.752;2023-04-01T08:06:49;94755.97;;;8.98;100.00
71457;BME280;59263;48.160;11.752;2023-04-01T08:12:21;94771.59;;;8.88;100.00
71457;BME280;59263;48.160;11.752;2023-04-01T08:14:59;94756.13;;;8.88;100.00
71457;BME280;59263;48.160;11.752;2023-04-01T08:22:41;94760.34;;;8.98;100.00
71457;BME280;59263;48.160;11.752;2023-04-01T08:25:13;94736.16;;;9.07;100.00
71457;BME280;59263;48.160;11.752;2023-04-01T08:27:46;94743.25;;;9.21;100.00
71457;BME280;59263;48.160;11.752;2023-04-01T08:33:01;94749.69;;;9.17;100.00
71457;BME280;59263;48.160;11.752;2023-04-01T08:35:40;94744.38;;;9.27;100.00
71457;BME280;59263;48.160;11.752;2023-04-01T08:38:31;94731.63;;;9.41;100.00
71457;BME280;59263;48.160;11.752;2023-04-01T08:41:26;94729.38;;;9.47;100.00
71457;BME280;59263;48.160;11.752;2023-04-01T08:52:25;94719.66;;;9.65;100.00
71457;BME280;59263;48.160;11.752;2023-04-01T09:00:30;94727.13;;;10.07;100.00
71457;BME280;59263;48.160;11.752;2023-04-01T09:08:30;94731.53;;;9.99;100.00
71457;BME280;59263;48.160;11.752;2023-04-01T09:11:25;94705.06;;;9.88;100.00
71457;BME280;59263;48.160;11.752;2023-04-01T09:19:27;94714.78;;;9.78;100.00
71457;BME280;59263;48.160;11.752;2023-04-01T09:24:52;94714.47;;;10.29;100.00
71457;BME280;59263;48.160;11.752;2023-04-01T09:36:12;94704.19;;;10.52;100.00
71457;BME280;59263;48.160;11.752;2023-04-01T09:38:49;94704.88;;;10.46;100.00
71457;BME280;59263;48.160;11.752;2023-04-01T09:41:45;94700.13;;;10.49;100.00
71457;BME280;59263;48.160;11.752;2023-04-01T09:47:06;94693.63;;;10.61;100.00
71457;BME280;59263;48.160;11.752;2023-04-01T09:58:20;94676.25;;;10.93;100.00
71457;BME280;59263;48.160;11.752;2023-04-01T10:00:52;94679.25;;;11.05;100.00
71457;BME280;59263;48.160;11.752;2023-04-01T10:11:56;94651.47;;;10.99;100.00
71457;BME280;59263;48.160;11.752;2023-04-01T10:20:30;94668.34;;;10.95;100.00
71457;BME280;59263;48.160;11.752;2023-04-01T10:23:26;94661.53;;;10.94;100.00
71457;BME280;59263;48.160;11.752;2023-04-01T10:35:06;94665.16;;;11.07;100.00
71457;BME280;59263;48.160;11.752;2023-04-01T10:40:58;94659.31;;;11.28;100.00
71457;BME280;59263;48.160;11.752;2023-04-01T10:54:49;94657.28;;;11.01;100.00
71457;BME280;59263;48.160;11.752;2023-04-01T11:09:38;94665.34;;;10.83;100.00
71457;BME280;59263;48.160;11.752;2023-04-01T11:31:47;94706.66;;;9.98;100.00
71457;BME280;59263;48.160;11.752;2023-04-01T11:37:24;94707.66;;;9.88;100.00
71457;BME280;59263;48.160;11.752;2023-04-01T11:43:08;94733.78;;;9.93;100.00
71457;BME280;59263;48.160;11.752;2023-04-01T11:48:30;94725.97;;;9.54;100.00
71457;BME280;59263;48.160;11.752;2023-04-01T11:56:13;94735.97;;;9.41;100.00
71457;BME280;59263;48.160;11.752;2023-04-01T11:58:58;94735.16;;;9.08;100.00
71457;BME280;59263;48.160;11.752;2023-04-01T12:01:54;94752.25;;;8.84;100.00
71457;BME280;59263;48.160;11.752;2023-04-01T12:07:50;94771.88;;;8.61;100.00
71457;BME280;59263;48.160;11.752;2023-04-01T12:10:26;94740.81;;;8.36;100.00
71457;BME280;59263;48.160;11.752;2023-04-01T12:15:55;94774.88;;;8.14;100.00
71457;BME280;59263;48.160;11.752;2023-04-01T12:18:38;94772.34;;;7.70;100.00
71457;BME280;59263;48.160;11.752;2023-04-01T12:24:25;94792.31;;;7.68;100.00
71457;BME280;59263;48.160;11.752;2023-04-01T12:32:47;94777.75;;;7.59;100.00
71457;BME280;59263;48.160;11.752;2023-04-01T12:37:58;94781.38;;;7.48;100.00
71457;BME280;59263;48.160;11.752;2023-04-01T12:40:31;94785.72;;;7.47;100.00
71457;BME280;59263;48.160;11.752;2023-04-01T12:57:31;94789.38;;;7.45;100.00
71457;BME280;59263;48.160;11.752;2023-04-01T13:05:41;94781.09;;;7.33;100.00
71457;BME280;59263;48.160;11.752;2023-04-01T13:08:35;94785.09;;;7.27;100.00
71457;BME280;59263;48.160;11.752;2023-04-01T13:14:42;94788.09;;;7.23;100.00
71457;BME280;59263;48.160;11.752;2023-04-01T13:17:14;94787.78;;;7.26;100.00
71457;BME280;59263;48.160;11.752;2023-04-01T13:19:59;94791.34;;;7.25;100.00
71457;BME280;59263;48.160;11.752;2023-04-01T13:22:42;94793.16;;;7.15;100.00
71457;BME280;59263;48.160;11.752;2023-04-01T13:25:33;94785.44;;;7.15;100.00
71457;BME280;59263;48.160;11.752;2023-04-01T13:28:16;94794.94;;;7.14;100.00
71457;BME280;59263;48.160;11.752;2023-04-01T13:31:07;94793.84;;;7.17;100.00
71457;BME280;59263;48.160;11.752;2023-04-01T13:34:03;94798.47;;;7.13;100.00
71457;BME280;59263;48.160;11.752;2023-04-01T13:44:42;94788.97;;;7.14;100.00
71457;BME280;59263;48.160;11.752;2023-04-01T13:55:46;94808.09;;;7.29;100.00
71457;BME280;59263;48.160;11.752;2023-04-01T14:04:00;94805.00;;;7.43;100.00
71457;BME280;59263;48.160;11.752;2023-04-01T14:06:35;94785.94;;;7.36;100.00
71457;BME280;59263;48.160;11.752;2023-04-01T14:09:33;94792.78;;;7.45;100.00
71457;BME280;59263;48.160;11.752;2023-04-01T14:15:09;94797.03;;;7.55;100.00
71457;BME280;59263;48.160;11.752;2023-04-01T14:18:10;94784.44;;;7.69;100.00
71457;BME280;59263;48.160;11.752;2023-04-01T14:20:55;94791.44;;;7.85;100.00
71457;BME280;59263;48.160;11.752;2023-04-01T14:40:26;94780.19;;;7.86;100.00
71457;BME280;59263;48.160;11.752;2023-04-01T14:43:07;94783.41;;;7.88;100.00
71457;BME280;59263;48.160;11.752;2023-04-01T14:46:05;94772.09;;;7.81;100.00
71457;BME280;59263;48.160;11.752;2023-04-01T14:48:38;94792.81;;;7.97;100.00
71457;BME280;59263;48.160;11.752;2023-04-01T14:51:20;94784.75;;;8.00;100.00
71457;BME280;59263;48.160;11.752;2023-04-01T14:54:00;94795.31;;;8.15;100.00
71457;BME280;59263;48.160;11.752;2023-04-01T14:56:37;94803.59;;;8.27;100.00
71457;BME280;59263;48.160;11.752;2023-04-01T14:59:07;94789.44;;;8.31;100.00
71457;BME280;59263;48.160;11.752;2023-04-01T15:34:13;94795.47;;;8.14;100.00
71457;BME280;59263;48.160;11.752;2023-04-01T15:37:03;94802.28;;;7.97;100.00
71457;BME280;59263;48.160;11.752;2023-04-01T15:47:53;94801.28;;;8.16;100.00
71457;BME280;59263;48.160;11.752;2023-04-01T15:51:01;94810.88;;;8.32;100.00
71457;BME280;59263;48.160;11.752;2023-04-01T15:53:50;94795.50;;;8.22;100.00
71457;BME280;59263;48.160;11.752;2023-04-01T15:59:27;94821.78;;;8.52;100.00
71457;BME280;59263;48.160;11.752;2023-04-01T16:05:04;94810.47;;;8.53;100.00
71457;BME280;59263;48.160;11.752;2023-04-01T16:10:17;94825.38;;;8.67;100.00
71457;BME280;59263;48.160;11.752;2023-04-01T16:16:00;94790.84;;;8.52;100.00
71457;BME280;59263;48.160;11.752;2023-04-01T16:21:24;94806.09;;;8.79;100.00
71457;BME280;59263;48.160;11.752;2023-04-01T16:23:59;94753.44;;;8.47;100.00
71457;BME280;59263;48.160;11.752;2023-04-01T16:27:02;94796.69;;;8.70;100.00
71457;BME280;59263;48.160;11.752;2023-04-01T16:32:21;94807.53;;;8.82;100.00
71457;BME280;59263;48.160;11.752;2023-04-01T16:35:10;94821.22;;;8.82;100.00
71457;BME280;59263;48.160;11.752;2023-04-01T16:37:54;94795.09;;;8.69;100.00
71457;BME280;59263;48.160;11.752;2023-04-01T16:40:40;94805.31;;;8.87;100.00
71457;BME280;59263;48.160;11.752;2023-04-01T16:43:16;94792.00;;;8.65;100.00
71457;BME280;59263;48.160;11.752;2023-04-01T16:49:00;94819.09;;;8.69;100.00
71457;BME280;59263;48.160;11.752;2023-04-01T16:54:36;94819.56;;;8.57;100.00
71457;BME280;59263;48.160;11.752;2023-04-01T16:59:55;94807.91;;;8.53;100.00
71457;BME280;59263;48.160;11.752;2023-04-01T17:02:31;94821.47;;;8.55;100.00
71457;BME280;59263;48.160;11.752;2023-04-01T17:05:05;94783.00;;;8.27;100.00
71457;BME280;59263;48.160;11.752;2023-04-01T17:10:18;94839.84;;;8.34;100.00
71457;BME280;59263;48.160;11.752;2023-04-01T17:13:10;94837.44;;;8.32;100.00
71457;BME280;59263;48.160;11.752;2023-04-01T17:18:50;94845.81;;;8.34;100.00
71457;BME280;59263;48.160;11.752;2023-04-01T17:21:24;94850.69;;;8.37;100.00
71457;BME280;59263;48.160;11.752;2023-04-01T17:23:52;94829.72;;;8.32;100.00
71457;BME280;59263;48.160;11.752;2023-04-01T17:29:46;94813.03;;;8.18;100.00
71457;BME280;59263;48.160;11.752;2023-04-01T17:32:36;94830.97;;;8.28;100.00
71457;BME280;59263;48.160;11.752;2023-04-01T17:35:13;94824.91;;;8.11;100.00
71457;BME280;59263;48.160;11.752;2023-04-01T17:45:52;94855.06;;;8.19;100.00
71457;BME280;59263;48.160;11.752;2023-04-01T17:49:07;94832.00;;;8.09;100.00
71457;BME280;59263;48.160;11.752;2023-04-01T17:57:14;94866.44;;;8.34;100.00
71457;BME280;59263;48.160;11.752;2023-04-01T18:00:14;94856.47;;;8.31;100.00
71457;BME280;59263;48.160;11.752;2023-04-01T18:02:55;94869.69;;;8.36;100.00
71457;BME280;59263;48.160;11.752;2023-04-01T18:13:44;94873.81;;;8.29;100.00
71457;BME280;59263;48.160;11.752;2023-04-01T18:18:58;94872.13;;;8.38;100.00
71457;BME280;59263;48.160;11.752;2023-04-01T18:21:47;94863.81;;;8.26;100.00
71457;BME280;59263;48.160;11.752;2023-04-01T18:26:42;94864.44;;;8.20;100.00
71457;BME280;59263;48.160;11.752;2023-04-01T18:29:24;94889.44;;;8.28;100.00
71457;BME280;59263;48.160;11.752;2023-04-01T18:32:07;94885.75;;;8.30;100.00
71457;BME280;59263;48.160;11.752;2023-04-01T18:34:47;94880.91;;;8.27;100.00
71457;BME280;59263;48.160;11.752;2023-04-01T18:37:45;94898.00;;;8.28;100.00
71457;BME280;59263;48.160;11.752;2023-04-01T18:42:53;94899.22;;;8.16;100.00
71457;BME280;59263;48.160;11.752;2023-04-01T18:45:43;94911.00;;;8.00;100.00
71457;BME280;59263;48.160;11.752;2023-04-01T18:50:57;94925.56;;;7.92;100.00
71457;BME280;59263;48.160;11.752;2023-04-01T18:53:45;94912.06;;;7.90;100.00
71457;BME280;59263;48.160;11.752;2023-04-01T18:56:40;94913.22;;;7.95;100.00
71457;BME280;59263;48.160;11.752;2023-04-01T18:59:28;94932.28;;;8.03;100.00
71457;BME280;59263;48.160;11.752;2023-04-01T19:02:14;94930.66;;;8.02;100.00
71457;BME280;59263;48.160;11.752;2023-04-01T19:04:50;94923.69;;;7.94;100.00
71457;BME280;59263;48.160;11.752;2023-04-01T19:07:41;94928.38;;;7.98;100.00
71457;BME280;59263;48.160;11.752;2023-04-01T19:18:22;94939.56;;;7.89;100.00
71457;BME280;59263;48.160;11.752;2023-04-01T19:20:56;94953.91;;;7.92;100.00
71457;BME280;59263;48.160;11.752;2023-04-01T19:27:06;94956.72;;;7.81;100.00
71457;BME280;59263;48.160;11.752;2023-04-01T19:32:34;94955.16;;;7.70;100.00
71457;BME280;59263;48.160;11.752;2023-04-01T19:35:11;94962.88;;;7.70;100.00
71457;BME280;59263;48.160;11.752;2023-04-01T19:37:50;94973.34;;;7.68;100.00
71457;BME280;59263;48.160;11.752;2023-04-01T19:43:03;94974.16;;;7.69;100.00
71457;BME280;59263;48.160;11.752;2023-04-01T19:45:52;94981.19;;;7.67;100.00
71457;BME280;59263;48.160;11.752;2023-04-01T19:53:52;94972.00;;;7.46;100.00
71457;BME280;59263;48.160;11.752;2023-04-01T19:56:23;94968.91;;;7.43;100.00
71457;BME280;59263;48.160;11.752;2023-04-01T19:58:58;94991.69;;;7.56;100.00
71457;BME280;59263;48.160;11.752;2023-04-01T20:04:30;94968.38;;;7.39;100.00
71457;BME280;59263;48.160;11.752;2023-04-01T20:07:16;94993.72;;;7.62;100.00
71457;BME280;59263;48.160;11.752;2023-04-01T20:15:31;94995.91;;;7.57;100.00
71457;BME280;59263;48.160;11.752;2023-04-01T20:18:02;94998.09;;;7.51;100.00
71457;BME280;59263;48.160;11.752;2023-04-01T20:20:30;94996.19;;;7.54;100.00
71457;BME280;59263;48.160;11.752;2023-04-01T20:23:21;95009.19;;;7.52;100.00
71457;BME280;59263;48.160;11.752;2023-04-01T20:26:04;94999.06;;;7.50;100.00
71457;BME280;59263;48.160;11.752;2023-04-01T20:28:38;95003.53;;;7.48;100.00
71457;BME280;59263;48.160;11.752;2023-04-01T20:31:27;95004.13;;;7.42;100.00
71457;BME280;59263;48.160;11.752;2023-04-01T20:34:20;94996.31;;;7.34;100.00
71457;BME280;59263;48.160;11.752;2023-04-01T20:48:31;95001.47;;;7.34;100.00
71457;BME280;59263;48.160;11.752;2023-04-01T20:51:06;95006.81;;;7.41;100.00